createdAt,value
2022-10-22T00:01:24.734Z,13.53
2022-10-22T00:03:53.219Z,13.80
2022-10-22T00:06:21.735Z,13.27
2022-10-22T00:08:50.238Z,15.27
2022-10-22T00:11:20.699Z,13.83
2022-10-22T00:13:50.765Z,13.87
2022-10-22T00:16:19.524Z,14.60
2022-10-22T00:18:47.961Z,13.70
2022-10-22T00:21:16.363Z,13.67
2022-10-22T00:23:45.203Z,15.03
2022-10-22T00:26:13.886Z,15.43
2022-10-22T00:28:42.344Z,14.03
2022-10-22T00:31:12.187Z,12.83
2022-10-22T00:33:40.556Z,16.20
2022-10-22T00:36:09.875Z,13.20
2022-10-22T00:38:38.485Z,14.23
2022-10-22T00:41:07.398Z,14.33
2022-10-22T00:43:53.574Z,15.17
2022-10-22T00:46:23.437Z,15.63
2022-10-22T00:48:52.444Z,15.73
2022-10-22T00:51:22.115Z,15.27
2022-10-22T00:53:53.511Z,15.10
2022-10-22T00:56:22.233Z,13.57
2022-10-22T00:58:53.848Z,12.67
2022-10-22T01:01:26.634Z,12.77
2022-10-22T01:03:55.312Z,13.40
2022-10-22T01:06:26.290Z,13.70
2022-10-22T01:09:01.152Z,13.30
2022-10-22T01:11:40.580Z,13.63
2022-10-22T01:14:16.391Z,13.27
2022-10-22T01:16:51.224Z,12.83
2022-10-22T01:19:41.853Z,13.10
2022-10-22T01:22:15.292Z,14.80
2022-10-22T01:24:54.463Z,12.37
2022-10-22T01:27:31.099Z,11.67
2022-10-22T01:30:03.398Z,13.40
2022-10-22T01:32:35.979Z,13.73
2022-10-22T01:35:08.955Z,12.37
2022-10-22T01:37:41.173Z,14.17
2022-10-22T01:40:11.460Z,13.43
2022-10-22T01:42:40.004Z,12.33
2022-10-22T01:45:14.896Z,12.73
2022-10-22T01:47:58.577Z,12.53
2022-10-22T01:50:43.404Z,12.90
2022-10-22T01:53:20.462Z,13.80
2022-10-22T01:56:00.195Z,12.77
2022-10-22T01:58:40.036Z,13.90
2022-10-22T02:01:16.066Z,12.30
2022-10-22T02:03:49.647Z,12.60
2022-10-22T02:06:20.755Z,12.53
2022-10-22T02:08:51.294Z,13.20
2022-10-22T02:11:19.800Z,13.20
2022-10-22T02:13:50.571Z,12.67
2022-10-22T02:16:25.786Z,13.07
2022-10-22T02:18:57.652Z,11.93
2022-10-22T02:21:26.075Z,11.70
2022-10-22T02:23:54.693Z,12.30
2022-10-22T02:26:25.763Z,12.07
2022-10-22T02:28:59.694Z,11.03
2022-10-22T02:31:31.275Z,11.47
2022-10-22T02:34:02.971Z,11.47
2022-10-22T02:36:31.765Z,10.77
2022-10-22T02:39:00.700Z,10.87
2022-10-22T02:41:29.273Z,12.00
2022-10-22T02:43:58.189Z,10.63
2022-10-22T02:46:27.373Z,12.27
2022-10-22T02:48:57.180Z,11.37
2022-10-22T02:51:25.595Z,11.67
2022-10-22T02:53:54.031Z,11.57
2022-10-22T02:56:22.583Z,10.73
2022-10-22T02:58:51.013Z,11.73
2022-10-22T03:01:19.462Z,13.17
2022-10-22T03:03:47.955Z,12.10
2022-10-22T03:06:18.167Z,12.20
2022-10-22T03:08:47.525Z,11.90
2022-10-22T03:11:15.922Z,11.67
2022-10-22T03:13:44.442Z,13.27
2022-10-22T03:16:12.915Z,15.40
2022-10-22T03:18:41.390Z,14.63
2022-10-22T03:21:12.600Z,12.97
2022-10-22T03:24:03.767Z,12.57
2022-10-22T03:26:52.958Z,13.40
2022-10-22T03:29:41.647Z,13.13
2022-10-22T03:32:30.046Z,13.90
2022-10-22T03:35:18.468Z,14.10
2022-10-22T03:38:06.871Z,13.47
2022-10-22T03:40:56.803Z,13.67
2022-10-22T03:43:49.640Z,13.97
2022-10-22T03:46:38.031Z,14.93
2022-10-22T03:49:26.501Z,14.83
2022-10-22T03:52:16.308Z,14.53
2022-10-22T03:55:05.244Z,13.60
2022-10-22T03:57:55.014Z,14.33
2022-10-22T04:00:43.469Z,14.40
2022-10-22T04:03:31.874Z,13.43
2022-10-22T04:06:20.681Z,12.97
2022-10-22T04:09:09.102Z,14.73
2022-10-22T04:11:57.576Z,14.80
2022-10-22T04:14:47.334Z,15.27
2022-10-22T04:17:36.556Z,13.77
2022-10-22T04:20:24.936Z,12.30
2022-10-22T04:23:13.396Z,11.20
2022-10-22T04:26:02.554Z,12.60
2022-10-22T04:28:52.707Z,11.60
2022-10-22T04:31:42.479Z,11.83
2022-10-22T04:34:31.432Z,11.47
2022-10-22T04:37:19.822Z,11.20
2022-10-22T04:40:09.574Z,12.03
2022-10-22T04:42:58.305Z,9.17
2022-10-22T04:45:46.761Z,9.70
2022-10-22T04:48:36.631Z,9.97
2022-10-22T04:51:26.337Z,9.70
2022-10-22T04:54:15.150Z,10.33
2022-10-22T04:57:03.700Z,10.50
2022-10-22T04:59:52.105Z,9.90
2022-10-22T05:02:40.641Z,10.57
2022-10-22T05:05:30.445Z,10.63
2022-10-22T05:08:18.824Z,10.60
2022-10-22T05:11:13.295Z,10.27
2022-10-22T05:14:03.075Z,10.77
2022-10-22T05:16:52.060Z,9.97
2022-10-22T05:19:40.446Z,10.70
2022-10-22T05:22:30.192Z,11.30
2022-10-22T05:25:18.600Z,11.97
2022-10-22T05:28:07.144Z,10.33
2022-10-22T05:30:55.906Z,11.43
2022-10-22T05:33:44.970Z,13.43
2022-10-22T05:36:33.597Z,12.57
2022-10-22T05:39:23.367Z,11.97
2022-10-22T05:42:11.761Z,18.47
2022-10-22T05:45:00.201Z,12.70
2022-10-22T05:47:48.587Z,11.87
2022-10-22T05:50:37.579Z,11.30
2022-10-22T05:53:26.066Z,11.50
2022-10-22T05:56:17.188Z,10.70
2022-10-22T05:59:05.968Z,12.00
2022-10-22T06:01:54.393Z,10.83
2022-10-22T06:04:42.922Z,17.37
2022-10-22T06:07:33.317Z,13.50
2022-10-22T06:10:22.455Z,13.97
2022-10-22T06:13:12.213Z,11.77
2022-10-22T06:16:00.623Z,11.93
2022-10-22T06:18:49.067Z,12.17
2022-10-22T06:21:37.434Z,12.07
2022-10-22T06:24:26.242Z,11.30
2022-10-22T06:27:14.663Z,11.23
2022-10-22T06:30:05.262Z,12.10
2022-10-22T06:32:53.715Z,13.00
2022-10-22T06:35:42.137Z,15.97
2022-10-22T06:38:30.642Z,15.33
2022-10-22T06:41:19.043Z,14.87
2022-10-22T06:44:07.484Z,18.27
2022-10-22T06:46:57.305Z,17.10
2022-10-22T06:49:45.773Z,14.97
2022-10-22T06:52:34.313Z,19.77
2022-10-22T06:55:22.704Z,12.33
2022-10-22T06:58:11.077Z,16.00
2022-10-22T07:01:03.957Z,30.90
2022-10-22T07:03:54.436Z,24.63
2022-10-22T07:06:42.987Z,14.83
2022-10-22T07:09:31.418Z,11.70
2022-10-22T07:12:19.819Z,11.97
2022-10-22T07:15:08.876Z,12.40
2022-10-22T07:17:57.260Z,11.30
2022-10-22T07:20:48.081Z,10.97
2022-10-22T07:23:36.647Z,11.20
2022-10-22T07:26:27.146Z,12.83
2022-10-22T07:29:16.496Z,11.47
2022-10-22T07:32:05.038Z,14.27
2022-10-22T07:34:53.452Z,25.10
2022-10-22T07:37:43.370Z,13.37
2022-10-22T07:40:32.085Z,12.40
2022-10-22T07:43:20.489Z,13.00
2022-10-22T07:46:09.466Z,13.67
2022-10-22T07:48:58.076Z,19.13
2022-10-22T07:51:46.483Z,14.60
2022-10-22T07:54:36.471Z,12.70
2022-10-22T07:57:24.876Z,14.33
2022-10-22T08:00:14.251Z,14.27
2022-10-22T08:03:02.642Z,16.53
2022-10-22T08:05:51.102Z,16.77
2022-10-22T08:08:39.559Z,13.47
2022-10-22T08:11:29.501Z,13.37
2022-10-22T08:14:17.882Z,12.67
2022-10-22T08:17:06.263Z,14.70
2022-10-22T08:19:54.687Z,13.93
2022-10-22T08:22:43.056Z,15.37
2022-10-22T08:25:31.491Z,13.90
2022-10-22T08:28:22.166Z,16.20
2022-10-22T08:31:11.000Z,13.80
2022-10-22T08:33:59.399Z,13.13
2022-10-22T08:36:48.192Z,12.80
2022-10-22T08:39:36.596Z,12.67
2022-10-22T08:42:45.782Z,14.73
2022-10-22T08:45:40.491Z,38.27
2022-10-22T08:48:43.343Z,36.90
2022-10-22T08:51:33.886Z,35.40
2022-10-22T08:54:33.290Z,25.03
2022-10-22T08:57:35.360Z,35.53
2022-10-22T09:00:26.613Z,24.73
2022-10-22T09:03:35.569Z,19.07
2022-10-22T09:06:25.586Z,17.73
2022-10-22T09:09:17.394Z,16.63
2022-10-22T09:12:07.200Z,24.13
2022-10-22T09:14:55.629Z,25.33
2022-10-22T09:17:54.351Z,17.97
2022-10-22T09:20:49.204Z,16.83
2022-10-22T09:23:41.263Z,17.43
2022-10-22T09:26:29.706Z,20.07
2022-10-22T09:29:20.971Z,38.30
2022-10-22T09:32:09.539Z,19.70
2022-10-22T09:34:59.562Z,17.20
2022-10-22T09:37:52.467Z,17.03
2022-10-22T09:40:46.092Z,18.17
2022-10-22T09:43:36.160Z,17.17
2022-10-22T09:46:26.187Z,17.47
2022-10-22T09:49:16.246Z,16.90
2022-10-22T09:52:04.759Z,17.50
2022-10-22T09:54:54.692Z,17.27
2022-10-22T09:57:43.873Z,16.90
2022-10-22T10:00:33.042Z,60.73
2022-10-22T10:03:24.710Z,35.87
2022-10-22T10:06:13.412Z,25.23
2022-10-22T10:09:05.812Z,22.37
2022-10-22T10:12:03.027Z,25.73
2022-10-22T10:15:01.020Z,20.10
2022-10-22T10:18:00.150Z,36.13
2022-10-22T10:20:55.355Z,30.70
2022-10-22T10:23:49.965Z,21.23
2022-10-22T10:26:41.780Z,20.43
2022-10-22T10:29:41.646Z,18.20
2022-10-22T10:32:42.946Z,17.50
2022-10-22T10:35:38.262Z,17.43
2022-10-22T10:38:35.947Z,18.40
2022-10-22T10:41:31.903Z,43.23
2022-10-22T10:44:38.007Z,42.10
2022-10-22T10:47:47.649Z,24.97
2022-10-22T10:50:44.383Z,20.07
2022-10-22T10:53:43.472Z,21.00
2022-10-22T10:56:39.672Z,20.20
2022-10-22T10:59:42.751Z,19.97
2022-10-22T11:05:54.601Z,36.77
2022-10-22T11:08:46.400Z,28.87
2022-10-22T11:11:39.806Z,23.40
2022-10-22T11:14:33.815Z,23.87
2022-10-22T11:17:24.742Z,27.37
2022-10-22T11:20:17.836Z,23.17
2022-10-22T11:23:25.167Z,20.23
2022-10-22T11:26:20.862Z,30.60
2022-10-22T11:29:14.381Z,34.93
2022-10-22T11:32:03.622Z,22.07
2022-10-22T11:34:55.646Z,20.43
2022-10-22T11:37:46.034Z,17.47
2022-10-22T11:40:36.613Z,17.97
2022-10-22T11:43:30.012Z,16.90
2022-10-22T11:46:30.304Z,35.10
2022-10-22T11:49:24.499Z,21.63
2022-10-22T11:52:28.315Z,19.47
2022-10-22T11:55:34.956Z,30.27
2022-10-22T11:58:35.031Z,18.43
2022-10-22T12:01:29.041Z,17.13
2022-10-22T12:04:23.261Z,18.33
2022-10-22T12:07:34.993Z,16.00
2022-10-22T12:10:27.128Z,15.63
2022-10-22T12:13:19.858Z,14.97
2022-10-22T12:16:12.843Z,15.33
2022-10-22T12:19:05.870Z,17.00
2022-10-22T12:21:56.779Z,14.73
2022-10-22T12:24:49.380Z,14.00
2022-10-22T12:27:39.152Z,13.10
2022-10-22T12:30:29.144Z,15.57
2022-10-22T12:33:22.534Z,12.60
2022-10-22T12:36:17.725Z,7.97
2022-10-22T12:39:12.699Z,8.03
2022-10-22T12:42:02.469Z,9.30
2022-10-22T12:44:56.543Z,8.77
2022-10-22T12:47:47.770Z,7.90
2022-10-22T12:50:38.602Z,8.60
2022-10-22T12:53:31.131Z,23.10
2022-10-22T12:56:22.611Z,14.40
2022-10-22T12:59:19.415Z,19.97
2022-10-22T13:02:18.907Z,12.97
2022-10-22T13:05:21.764Z,9.93
2022-10-22T13:08:11.899Z,12.20
2022-10-22T13:11:08.852Z,11.67
2022-10-22T13:14:03.406Z,8.53
2022-10-22T13:17:11.496Z,6.20
2022-10-22T13:20:05.347Z,5.73
2022-10-22T13:22:55.569Z,5.50
2022-10-22T13:25:44.087Z,7.60
2022-10-22T13:28:33.648Z,20.90
2022-10-22T13:31:25.207Z,36.13
2022-10-22T13:34:17.916Z,44.47
2022-10-22T13:37:09.366Z,40.90
2022-10-22T13:39:57.757Z,33.67
2022-10-22T13:42:46.238Z,20.30
2022-10-22T13:45:34.638Z,9.63
2022-10-22T13:48:25.107Z,8.37
2022-10-22T13:51:18.013Z,8.07
2022-10-22T13:54:14.406Z,7.87
2022-10-22T13:57:02.779Z,12.70
2022-10-22T13:59:51.185Z,16.17
2022-10-22T14:02:39.790Z,9.90
2022-10-22T14:05:30.490Z,9.67
2022-10-22T14:08:21.677Z,9.30
2022-10-22T14:11:11.207Z,7.10
2022-10-22T14:13:59.661Z,6.43
2022-10-22T14:16:48.023Z,7.10
2022-10-22T14:19:36.450Z,7.50
2022-10-22T14:22:26.763Z,8.50
2022-10-22T14:25:18.096Z,6.80
2022-10-22T14:28:06.542Z,6.90
2022-10-22T14:30:55.350Z,8.63
2022-10-22T14:33:43.947Z,12.93
2022-10-22T14:36:32.324Z,14.50
2022-10-22T14:39:21.615Z,11.37
2022-10-22T14:42:12.484Z,8.30
2022-10-22T14:45:00.863Z,8.43
2022-10-22T14:47:49.386Z,9.03
2022-10-22T14:50:37.819Z,9.10
2022-10-22T14:53:26.228Z,9.13
2022-10-22T14:56:15.751Z,10.90
2022-10-22T14:59:05.522Z,13.37
2022-10-22T15:01:53.920Z,14.80
2022-10-22T15:04:42.443Z,13.23
2022-10-22T15:07:30.815Z,9.60
2022-10-22T15:10:19.272Z,7.67
2022-10-22T15:13:07.781Z,7.97
2022-10-22T15:15:57.688Z,9.13
2022-10-22T15:18:46.239Z,10.77
2022-10-22T15:21:34.726Z,8.93
2022-10-22T15:24:23.181Z,10.10
2022-10-22T15:27:13.668Z,7.73
2022-10-22T15:32:52.876Z,6.70
2022-10-22T15:35:41.267Z,8.67
2022-10-22T15:41:23.549Z,9.10
2022-10-22T15:44:16.671Z,8.70
2022-10-22T15:47:06.411Z,11.77
2022-10-22T15:49:56.529Z,9.07
2022-10-22T15:52:44.923Z,8.97
2022-10-22T15:55:33.294Z,8.47
2022-10-22T15:58:21.675Z,11.17
2022-10-22T16:01:11.375Z,9.03
2022-10-22T16:04:02.836Z,9.70
2022-10-22T16:06:54.059Z,10.00
2022-10-22T16:09:42.503Z,9.77
2022-10-22T16:12:30.944Z,7.83
2022-10-22T16:15:19.332Z,6.60
2022-10-22T16:18:07.817Z,9.50
2022-10-22T16:20:56.190Z,13.50
2022-10-22T16:23:46.219Z,12.37
2022-10-22T16:26:34.672Z,15.30
2022-10-22T16:29:23.063Z,18.23
2022-10-22T16:32:13.264Z,15.53
2022-10-22T16:35:01.634Z,13.73
2022-10-22T16:37:50.007Z,14.60
2022-10-22T16:40:40.083Z,19.93
2022-10-22T16:43:28.456Z,14.43
2022-10-22T16:46:17.463Z,10.30
2022-10-22T16:49:06.258Z,8.80
2022-10-22T16:51:54.610Z,7.97
2022-10-22T16:54:42.995Z,6.83
2022-10-22T16:57:33.939Z,5.43
2022-10-22T17:00:22.612Z,4.43
2022-10-22T17:03:12.431Z,5.10
2022-10-22T17:06:01.131Z,8.77
2022-10-22T17:08:49.600Z,6.30
2022-10-22T17:11:40.167Z,5.80
2022-10-22T17:14:32.523Z,5.40
2022-10-22T17:17:20.898Z,5.43
2022-10-22T17:20:09.922Z,6.00
2022-10-22T17:22:58.313Z,6.07
2022-10-22T17:25:46.708Z,7.87
2022-10-22T17:28:35.967Z,7.43
2022-10-22T17:31:27.663Z,8.77
2022-10-22T17:34:17.782Z,7.00
2022-10-22T17:37:06.143Z,6.27
2022-10-22T17:39:54.535Z,5.07
2022-10-22T17:42:43.176Z,4.70
2022-10-22T17:45:32.003Z,4.80
2022-10-22T17:48:21.736Z,12.00
2022-10-22T17:51:10.731Z,6.13
2022-10-22T17:53:59.166Z,9.33
2022-10-22T17:56:47.539Z,14.13
2022-10-22T17:59:36.385Z,13.50
2022-10-22T18:02:24.775Z,13.17
2022-10-22T18:05:14.980Z,12.20
2022-10-22T18:08:07.674Z,11.43
2022-10-22T18:10:56.270Z,17.80
2022-10-22T18:13:44.983Z,11.63
2022-10-22T18:16:33.394Z,8.50
2022-10-22T18:19:24.526Z,8.10
2022-10-22T18:22:14.290Z,7.87
2022-10-22T18:25:02.737Z,7.93
2022-10-22T18:27:51.100Z,12.17
2022-10-22T18:30:40.824Z,11.60
2022-10-22T18:33:29.218Z,10.47
2022-10-22T18:36:19.324Z,9.53
2022-10-22T18:39:09.287Z,11.23
2022-10-22T18:41:57.659Z,10.03
2022-10-22T18:44:46.040Z,11.07
2022-10-22T18:47:34.516Z,8.47
2022-10-22T18:50:23.036Z,8.20
2022-10-22T18:53:11.773Z,8.50
2022-10-22T18:56:01.591Z,9.13
2022-10-22T19:01:39.969Z,7.53
2022-10-22T19:04:33.644Z,7.63
2022-10-22T19:07:22.058Z,10.07
2022-10-22T19:10:10.661Z,9.43
2022-10-22T19:13:00.436Z,6.23
2022-10-22T19:15:49.129Z,5.33
2022-10-22T19:18:39.729Z,10.30
2022-10-22T19:21:28.655Z,10.97
2022-10-22T19:24:19.252Z,14.20
2022-10-22T19:27:11.229Z,20.60
2022-10-22T19:30:01.083Z,16.87
2022-10-22T19:32:50.097Z,11.63
2022-10-22T19:35:38.588Z,9.87
2022-10-22T19:38:29.714Z,8.43
2022-10-22T19:41:20.387Z,7.77
2022-10-22T19:44:08.899Z,8.23
2022-10-22T19:46:59.037Z,8.10
2022-10-22T19:49:47.453Z,8.13
2022-10-22T19:52:35.952Z,10.20
2022-10-22T19:55:24.693Z,9.20
2022-10-22T19:58:13.951Z,11.53
2022-10-22T20:01:06.641Z,13.97
2022-10-22T20:03:56.507Z,16.27
2022-10-22T20:06:45.612Z,13.47
2022-10-22T20:09:34.102Z,29.83
2022-10-22T20:12:22.854Z,13.03
2022-10-22T20:15:11.943Z,13.77
2022-10-22T20:18:00.681Z,5.13
2022-10-22T20:20:51.271Z,5.83
2022-10-22T20:23:39.907Z,5.60
2022-10-22T20:26:29.047Z,5.50
2022-10-22T20:29:19.100Z,5.43
2022-10-22T20:32:08.857Z,5.80
2022-10-22T20:34:58.074Z,5.23
2022-10-22T20:37:47.817Z,6.57
2022-10-22T20:40:36.205Z,5.50
2022-10-22T20:43:24.582Z,5.10
2022-10-22T20:46:18.166Z,5.17
2022-10-22T20:49:08.665Z,5.43
2022-10-22T20:51:57.048Z,16.43
2022-10-22T20:54:46.826Z,15.13
2022-10-22T20:57:35.662Z,31.17
2022-10-22T21:00:24.045Z,8.03
2022-10-22T21:03:13.050Z,6.20
2022-10-22T21:06:01.431Z,11.20
2022-10-22T21:08:49.970Z,15.63
2022-10-22T21:11:40.021Z,11.10
2022-10-22T21:14:28.459Z,5.23
2022-10-22T21:17:16.855Z,3.93
2022-10-22T21:20:06.018Z,3.33
2022-10-22T21:22:54.405Z,3.60
2022-10-22T21:25:43.984Z,4.10
2022-10-22T21:28:36.081Z,3.40
2022-10-22T21:31:26.228Z,3.73
2022-10-22T21:34:15.070Z,3.77
2022-10-22T21:37:03.530Z,4.63
2022-10-22T21:39:51.920Z,6.67
2022-10-22T21:42:40.337Z,8.50
2022-10-22T21:45:30.132Z,6.20
2022-10-22T21:48:18.499Z,4.90
2022-10-22T21:51:08.875Z,6.07
2022-10-22T21:53:57.259Z,7.73
2022-10-22T21:56:45.711Z,13.00
2022-10-22T21:59:36.492Z,19.73
2022-10-22T22:02:28.564Z,13.33
2022-10-22T22:05:17.808Z,5.07
2022-10-22T22:08:06.529Z,9.10
2022-10-22T22:11:01.386Z,15.37
2022-10-22T22:13:50.058Z,14.33
2022-10-22T22:16:38.492Z,12.73
2022-10-22T22:19:28.236Z,8.17
2022-10-22T22:22:16.739Z,6.03
2022-10-22T22:25:05.521Z,5.53
2022-10-22T22:27:53.933Z,5.03
2022-10-22T22:30:42.332Z,5.23
2022-10-22T22:33:30.751Z,6.00
2022-10-22T22:36:20.580Z,8.47
2022-10-22T22:39:11.589Z,8.00
2022-10-22T22:42:00.094Z,6.87
2022-10-22T22:44:48.490Z,6.97
2022-10-22T22:47:36.907Z,5.53
2022-10-22T22:50:25.367Z,4.30
2022-10-22T22:53:15.109Z,3.67
2022-10-22T22:56:05.430Z,3.63
2022-10-22T22:58:54.066Z,3.60
2022-10-22T23:01:42.870Z,3.57
2022-10-22T23:04:31.504Z,3.33
2022-10-22T23:07:19.935Z,3.33
2022-10-22T23:10:10.671Z,2.97
2022-10-22T23:12:59.027Z,1.97
2022-10-22T23:15:47.502Z,2.23
2022-10-22T23:18:36.227Z,2.50
2022-10-22T23:21:27.217Z,2.20
2022-10-22T23:24:17.011Z,2.30
2022-10-22T23:27:06.875Z,2.30
2022-10-22T23:29:55.295Z,2.10
2022-10-22T23:32:43.707Z,2.23
2022-10-22T23:35:32.113Z,3.30
2022-10-22T23:38:20.516Z,5.70
2022-10-22T23:41:09.590Z,4.80
2022-10-22T23:43:59.330Z,3.50
2022-10-22T23:46:47.846Z,3.47
2022-10-22T23:49:36.200Z,3.20
2022-10-22T23:52:24.593Z,3.90
2022-10-22T23:55:12.944Z,3.30
2022-10-22T23:58:01.311Z,3.10
